createdAt,value
2022-12-14T00:02:16.519Z,37.70
2022-12-14T00:04:43.019Z,37.60
2022-12-14T00:07:09.462Z,37.60
2022-12-14T00:09:35.933Z,37.80
2022-12-14T00:12:02.403Z,37.70
2022-12-14T00:14:28.863Z,37.70
2022-12-14T00:16:55.334Z,37.60
2022-12-14T00:19:21.777Z,37.60
2022-12-14T00:21:48.239Z,37.50
2022-12-14T00:24:14.697Z,37.60
2022-12-14T00:26:41.167Z,37.50
2022-12-14T00:29:07.647Z,37.30
2022-12-14T00:31:34.156Z,37.50
2022-12-14T00:34:00.698Z,37.60
2022-12-14T00:36:27.157Z,37.50
2022-12-14T00:38:53.611Z,37.50
2022-12-14T00:41:20.066Z,37.50
2022-12-14T00:43:49.739Z,37.50
2022-12-14T00:46:16.436Z,37.50
2022-12-14T00:48:42.937Z,37.40
2022-12-14T00:51:09.397Z,37.30
2022-12-14T00:53:35.862Z,37.30
2022-12-14T00:56:02.309Z,37.20
2022-12-14T00:58:29.180Z,37.30
2022-12-14T01:00:55.990Z,37.20
2022-12-14T01:03:22.531Z,37.30
2022-12-14T01:05:49.545Z,37.30
2022-12-14T01:08:16.099Z,37.30
2022-12-14T01:10:42.565Z,37.40
2022-12-14T01:13:09.028Z,37.30
2022-12-14T01:15:35.555Z,37.20
2022-12-14T01:18:02.016Z,37.20
2022-12-14T01:20:28.483Z,37.30
2022-12-14T01:22:54.918Z,37.20
2022-12-14T01:25:21.387Z,36.90
2022-12-14T01:27:47.847Z,37.10
2022-12-14T01:30:14.296Z,37.00
2022-12-14T01:32:40.744Z,37.20
2022-12-14T01:35:07.205Z,36.90
2022-12-14T01:37:33.690Z,37.00
2022-12-14T01:40:00.153Z,36.80
2022-12-14T01:42:26.640Z,36.90
2022-12-14T01:44:53.090Z,36.80
2022-12-14T01:47:19.539Z,36.90
2022-12-14T01:49:46.007Z,36.80
2022-12-14T01:52:14.032Z,36.80
2022-12-14T01:54:40.494Z,36.70
2022-12-14T01:57:06.957Z,36.80
2022-12-14T01:59:33.410Z,36.80
2022-12-14T02:01:59.969Z,36.80
2022-12-14T02:04:26.490Z,36.70
2022-12-14T02:06:57.846Z,36.70
2022-12-14T02:09:27.359Z,36.70
2022-12-14T02:11:53.822Z,36.60
2022-12-14T02:14:20.287Z,36.70
2022-12-14T02:16:46.763Z,36.70
2022-12-14T02:19:13.242Z,36.70
2022-12-14T02:21:39.701Z,36.60
2022-12-14T02:24:06.149Z,36.50
2022-12-14T02:26:32.610Z,36.50
2022-12-14T02:28:59.079Z,36.50
2022-12-14T02:31:30.554Z,36.40
2022-12-14T02:33:57.056Z,36.50
2022-12-14T02:36:23.524Z,36.40
2022-12-14T02:38:49.970Z,36.50
2022-12-14T02:41:16.409Z,36.50
2022-12-14T02:43:42.882Z,36.40
2022-12-14T02:46:09.876Z,36.40
2022-12-14T02:48:36.392Z,36.40
2022-12-14T02:51:02.861Z,36.30
2022-12-14T02:53:29.715Z,36.40
2022-12-14T02:55:56.544Z,36.50
2022-12-14T02:58:23.001Z,36.50
2022-12-14T03:00:49.497Z,36.50
2022-12-14T03:03:15.974Z,36.50
2022-12-14T03:05:42.438Z,36.50
2022-12-14T03:08:08.908Z,36.50
2022-12-14T03:10:35.370Z,36.50
2022-12-14T03:13:01.830Z,36.50
2022-12-14T03:15:28.286Z,36.40
2022-12-14T03:17:54.733Z,36.40
2022-12-14T03:20:21.188Z,36.40
2022-12-14T03:22:47.651Z,36.40
2022-12-14T03:25:14.152Z,36.40
2022-12-14T03:27:40.615Z,36.40
2022-12-14T03:30:07.069Z,36.40
2022-12-14T03:32:33.539Z,36.30
2022-12-14T03:35:00.001Z,36.30
2022-12-14T03:37:26.464Z,36.40
2022-12-14T03:39:52.935Z,36.40
2022-12-14T03:42:19.398Z,36.30
2022-12-14T03:44:49.430Z,36.30
2022-12-14T03:47:16.332Z,36.30
2022-12-14T03:49:42.787Z,36.20
2022-12-14T03:52:09.271Z,36.30
2022-12-14T03:54:35.743Z,36.30
2022-12-14T03:57:02.206Z,36.20
2022-12-14T03:59:28.668Z,36.30
2022-12-14T04:01:55.239Z,36.20
2022-12-14T04:04:21.795Z,36.10
2022-12-14T04:06:48.251Z,36.20
2022-12-14T04:09:14.702Z,36.30
2022-12-14T04:11:41.159Z,36.30
2022-12-14T04:14:07.618Z,36.30
2022-12-14T04:16:34.108Z,36.30
2022-12-14T04:19:00.954Z,36.30
2022-12-14T04:21:27.490Z,36.30
2022-12-14T04:23:53.937Z,36.30
2022-12-14T04:26:20.417Z,36.30
2022-12-14T04:28:46.884Z,36.20
2022-12-14T04:31:13.395Z,36.20
2022-12-14T04:33:39.902Z,36.20
2022-12-14T04:36:06.381Z,36.30
2022-12-14T04:38:32.844Z,36.30
2022-12-14T04:40:59.303Z,36.20
2022-12-14T04:43:26.100Z,36.20
2022-12-14T04:45:52.832Z,36.20
2022-12-14T04:48:19.367Z,36.20
2022-12-14T04:50:45.843Z,36.20
2022-12-14T04:53:12.310Z,36.20
2022-12-14T04:55:38.800Z,36.20
2022-12-14T04:58:05.262Z,36.10
2022-12-14T05:00:31.718Z,36.20
2022-12-14T05:02:58.222Z,36.20
2022-12-14T05:05:24.679Z,36.10
2022-12-14T05:07:51.132Z,36.10
2022-12-14T05:10:17.582Z,36.10
2022-12-14T05:12:44.050Z,36.00
2022-12-14T05:15:10.515Z,36.10
2022-12-14T05:17:36.970Z,36.10
2022-12-14T05:20:03.412Z,36.10
2022-12-14T05:22:29.885Z,36.20
2022-12-14T05:24:56.336Z,36.10
2022-12-14T05:27:22.786Z,36.10
2022-12-14T05:29:49.250Z,36.00
2022-12-14T05:32:15.706Z,36.00
2022-12-14T05:34:42.171Z,36.10
2022-12-14T05:37:10.499Z,36.00
2022-12-14T05:39:41.177Z,36.10
2022-12-14T05:42:07.643Z,36.10
2022-12-14T05:44:34.090Z,36.10
2022-12-14T05:47:00.553Z,36.10
2022-12-14T05:49:27.022Z,36.20
2022-12-14T05:51:53.490Z,36.10
2022-12-14T05:54:19.955Z,36.10
2022-12-14T05:56:46.417Z,36.00
2022-12-14T05:59:12.854Z,36.10
2022-12-14T06:01:39.397Z,36.00
2022-12-14T06:04:05.902Z,36.00
2022-12-14T06:06:32.375Z,36.10
2022-12-14T06:09:00.669Z,36.10
2022-12-14T06:11:27.164Z,36.10
2022-12-14T06:13:53.616Z,36.00
2022-12-14T06:16:20.151Z,36.00
2022-12-14T06:18:46.679Z,36.00
2022-12-14T06:21:13.130Z,35.80
2022-12-14T06:23:39.584Z,35.90
2022-12-14T06:26:06.048Z,36.00
2022-12-14T06:28:32.512Z,36.00
2022-12-14T06:30:58.988Z,36.00
2022-12-14T06:33:25.874Z,36.00
2022-12-14T06:35:52.485Z,36.00
2022-12-14T06:38:18.955Z,36.00
2022-12-14T06:40:45.429Z,36.10
2022-12-14T06:43:11.901Z,36.00
2022-12-14T06:45:38.364Z,36.10
2022-12-14T06:48:04.816Z,35.90
2022-12-14T06:50:31.278Z,36.00
2022-12-14T06:52:57.750Z,35.90
2022-12-14T06:55:24.199Z,35.90
2022-12-14T06:57:50.672Z,36.00
2022-12-14T07:00:17.132Z,36.00
2022-12-14T07:02:43.818Z,36.10
2022-12-14T07:05:10.381Z,36.10
2022-12-14T07:07:36.862Z,36.10
2022-12-14T07:10:03.327Z,36.00
2022-12-14T07:12:29.809Z,36.00
2022-12-14T07:14:56.263Z,36.00
2022-12-14T07:17:22.749Z,36.00
2022-12-14T07:19:49.288Z,36.00
2022-12-14T07:22:15.813Z,36.00
2022-12-14T07:24:42.300Z,36.00
2022-12-14T07:27:08.747Z,36.00
2022-12-14T07:29:35.257Z,36.10
2022-12-14T07:32:01.725Z,36.10
2022-12-14T07:34:28.199Z,36.00
2022-12-14T07:36:54.660Z,36.00
2022-12-14T07:39:21.126Z,36.00
2022-12-14T07:41:47.597Z,36.00
2022-12-14T07:44:14.056Z,36.00
2022-12-14T07:46:40.531Z,36.00
2022-12-14T07:49:07.110Z,36.00
2022-12-14T07:51:33.585Z,36.00
2022-12-14T07:54:00.091Z,36.10
2022-12-14T07:56:26.583Z,36.10
2022-12-14T07:58:53.078Z,36.20
2022-12-14T08:01:19.612Z,36.10
2022-12-14T08:03:46.161Z,36.10
2022-12-14T08:06:12.637Z,36.20
2022-12-14T08:08:39.121Z,36.10
2022-12-14T08:11:05.587Z,36.10
2022-12-14T08:13:32.395Z,36.10
2022-12-14T08:16:00.262Z,36.10
2022-12-14T08:18:26.754Z,36.10
2022-12-14T08:20:53.559Z,36.20
2022-12-14T08:23:20.108Z,36.10
2022-12-14T08:25:46.610Z,36.10
2022-12-14T08:28:13.089Z,36.10
2022-12-14T08:30:39.608Z,36.20
2022-12-14T08:33:06.104Z,36.10
2022-12-14T08:35:32.586Z,36.10
2022-12-14T08:37:59.079Z,36.10
2022-12-14T08:40:25.618Z,36.10
2022-12-14T08:42:52.154Z,36.20
2022-12-14T08:45:18.641Z,36.10
2022-12-14T08:47:45.127Z,36.10
2022-12-14T08:50:11.611Z,36.20
2022-12-14T08:52:38.103Z,36.10
2022-12-14T08:55:04.598Z,36.20
2022-12-14T08:57:31.094Z,36.20
2022-12-14T09:00:02.074Z,36.20
2022-12-14T09:02:29.241Z,36.20
2022-12-14T09:04:55.799Z,36.20
2022-12-14T09:07:22.296Z,36.20
2022-12-14T09:09:48.798Z,36.20
2022-12-14T09:12:15.308Z,36.20
2022-12-14T09:14:41.802Z,36.10
2022-12-14T09:17:08.302Z,36.10
2022-12-14T09:19:34.814Z,36.20
2022-12-14T09:22:01.368Z,36.20
2022-12-14T09:24:27.889Z,36.20
2022-12-14T09:26:54.360Z,36.20
2022-12-14T09:29:20.858Z,36.20
2022-12-14T09:31:47.401Z,36.20
2022-12-14T09:34:13.953Z,36.20
2022-12-14T09:36:40.456Z,36.20
2022-12-14T09:39:06.967Z,36.20
2022-12-14T09:41:33.462Z,36.30
2022-12-14T09:43:59.992Z,36.10
2022-12-14T09:46:26.481Z,36.10
2022-12-14T09:48:52.951Z,36.10
2022-12-14T09:51:19.505Z,36.10
2022-12-14T09:53:46.013Z,36.10
2022-12-14T09:56:12.514Z,36.30
2022-12-14T09:58:39.006Z,36.40
2022-12-14T10:01:05.545Z,36.30
2022-12-14T10:03:32.572Z,36.40
2022-12-14T10:05:59.362Z,36.30
2022-12-14T10:08:25.931Z,36.40
2022-12-14T10:10:52.460Z,36.40
2022-12-14T10:13:18.951Z,36.40
2022-12-14T10:15:45.458Z,36.40
2022-12-14T10:18:27.775Z,36.40
2022-12-14T10:20:58.415Z,36.40
2022-12-14T10:23:24.931Z,36.40
2022-12-14T10:25:51.443Z,36.40
2022-12-14T10:28:17.930Z,36.40
2022-12-14T10:30:44.428Z,36.40
2022-12-14T10:33:10.910Z,36.50
2022-12-14T10:35:37.450Z,36.50
2022-12-14T10:38:03.985Z,36.50
2022-12-14T10:40:34.007Z,36.50
2022-12-14T10:43:00.862Z,36.50
2022-12-14T10:45:42.793Z,36.50
2022-12-14T10:48:09.407Z,36.50
2022-12-14T10:50:35.917Z,36.50
2022-12-14T10:53:02.400Z,36.50
2022-12-14T10:55:28.893Z,36.50
2022-12-14T10:57:55.389Z,36.50
2022-12-14T11:00:23.811Z,36.50
2022-12-14T11:02:50.699Z,36.60
2022-12-14T11:05:17.258Z,36.60
2022-12-14T11:07:43.930Z,36.50
2022-12-14T11:10:10.436Z,36.60
2022-12-14T11:12:36.923Z,36.60
2022-12-14T11:15:03.405Z,36.70
2022-12-14T11:17:31.181Z,36.70
2022-12-14T11:19:57.866Z,36.70
2022-12-14T11:22:24.366Z,36.70
2022-12-14T11:24:50.852Z,36.70
2022-12-14T11:27:17.330Z,36.70
2022-12-14T11:29:43.811Z,36.70
2022-12-14T11:32:10.301Z,36.70
2022-12-14T11:34:36.777Z,36.70
2022-12-14T11:37:03.253Z,36.70
2022-12-14T11:39:29.751Z,36.70
2022-12-14T11:41:56.252Z,36.70
2022-12-14T11:44:22.753Z,36.70
2022-12-14T11:46:49.340Z,36.70
2022-12-14T11:49:15.867Z,36.80
2022-12-14T11:51:42.377Z,36.80
2022-12-14T11:54:15.621Z,36.80
2022-12-14T11:56:42.122Z,36.80
2022-12-14T11:59:08.624Z,36.80
2022-12-14T12:01:35.182Z,36.80
2022-12-14T12:04:01.743Z,36.60
2022-12-14T12:06:28.303Z,36.80
2022-12-14T12:08:54.798Z,36.80
2022-12-14T12:11:21.299Z,36.80
2022-12-14T12:13:47.940Z,36.80
2022-12-14T12:16:14.514Z,36.90
2022-12-14T12:18:46.162Z,36.90
2022-12-14T12:21:13.203Z,36.90
2022-12-14T12:23:39.727Z,36.90
2022-12-14T12:26:06.222Z,36.90
2022-12-14T12:28:33.038Z,36.80
2022-12-14T12:30:59.748Z,36.80
2022-12-14T12:33:26.255Z,36.90
2022-12-14T12:35:52.753Z,36.90
2022-12-14T12:38:19.244Z,36.90
2022-12-14T12:40:45.749Z,36.90
2022-12-14T12:43:12.229Z,36.90
2022-12-14T12:45:38.711Z,37.00
2022-12-14T12:48:05.282Z,36.80
2022-12-14T12:50:31.796Z,36.90
2022-12-14T12:53:03.115Z,36.90
2022-12-14T12:55:30.314Z,36.90
2022-12-14T12:57:56.816Z,37.00
2022-12-14T13:00:23.316Z,36.90
2022-12-14T13:02:50.608Z,36.90
2022-12-14T13:05:45.310Z,36.90
2022-12-14T13:08:03.810Z,36.90
2022-12-14T13:10:30.313Z,36.90
2022-12-14T13:12:56.873Z,36.90
2022-12-14T13:15:23.372Z,37.00
2022-12-14T13:17:49.885Z,37.00
2022-12-14T13:20:16.416Z,37.00
2022-12-14T13:22:42.910Z,37.00
2022-12-14T13:25:14.222Z,37.00
2022-12-14T13:27:40.749Z,37.00
2022-12-14T13:30:07.421Z,37.00
2022-12-14T13:32:37.384Z,37.00
2022-12-14T13:35:04.314Z,37.00
2022-12-14T13:37:30.826Z,37.00
2022-12-14T13:39:57.307Z,36.90
2022-12-14T13:42:23.798Z,37.00
2022-12-14T13:44:50.289Z,37.00
2022-12-14T13:47:16.802Z,37.00
2022-12-14T13:49:43.316Z,37.00
2022-12-14T13:52:09.815Z,37.00
2022-12-14T13:54:36.317Z,37.00
2022-12-14T13:57:02.821Z,37.00
2022-12-14T13:59:29.310Z,37.10
2022-12-14T14:01:55.808Z,37.00
2022-12-14T14:04:22.407Z,37.10
2022-12-14T14:06:48.988Z,37.10
2022-12-14T14:09:15.515Z,37.10
2022-12-14T14:11:42.020Z,37.00
2022-12-14T14:14:08.521Z,37.00
2022-12-14T14:16:35.113Z,37.00
2022-12-14T14:19:01.642Z,37.00
2022-12-14T14:21:28.133Z,37.10
2022-12-14T14:23:54.669Z,37.00
2022-12-14T14:26:21.168Z,37.00
2022-12-14T14:28:47.786Z,37.00
2022-12-14T14:31:16.172Z,37.00
2022-12-14T14:33:46.084Z,37.00
2022-12-14T14:36:13.965Z,37.00
2022-12-14T14:38:40.478Z,37.00
2022-12-14T14:41:16.663Z,37.00
2022-12-14T14:43:43.800Z,37.10
2022-12-14T14:46:22.254Z,37.10
2022-12-14T14:48:49.504Z,37.00
2022-12-14T14:51:15.978Z,36.90
2022-12-14T14:53:42.485Z,37.10
2022-12-14T14:56:08.991Z,37.10
2022-12-14T14:58:35.920Z,37.10
2022-12-14T15:01:02.658Z,37.10
2022-12-14T15:03:29.215Z,37.10
2022-12-14T15:05:55.750Z,37.10
2022-12-14T15:08:22.248Z,37.10
2022-12-14T15:10:48.744Z,37.20
2022-12-14T15:13:15.222Z,37.10
2022-12-14T15:15:41.708Z,37.20
2022-12-14T15:18:08.210Z,37.10
2022-12-14T15:20:34.706Z,37.10
2022-12-14T15:23:01.223Z,37.10
2022-12-14T15:25:27.722Z,37.10
2022-12-14T15:27:54.197Z,37.10
2022-12-14T15:30:20.704Z,37.10
2022-12-14T15:32:48.055Z,37.20
2022-12-14T15:35:14.660Z,37.10
2022-12-14T15:37:41.145Z,37.10
2022-12-14T15:40:07.655Z,37.20
2022-12-14T15:42:34.145Z,37.20
2022-12-14T15:45:00.646Z,37.10
2022-12-14T15:47:27.153Z,37.10
2022-12-14T15:49:59.369Z,37.10
2022-12-14T15:52:27.832Z,37.20
2022-12-14T15:54:54.331Z,37.10
2022-12-14T15:57:20.816Z,37.10
2022-12-14T15:59:47.313Z,37.10
2022-12-14T16:02:16.058Z,37.10
2022-12-14T16:04:42.739Z,37.20
2022-12-14T16:07:09.980Z,37.10
2022-12-14T16:09:36.585Z,37.10
2022-12-14T16:12:03.104Z,37.10
2022-12-14T16:14:29.593Z,36.90
2022-12-14T16:16:56.198Z,37.10
2022-12-14T16:19:28.347Z,37.10
2022-12-14T16:21:56.382Z,37.10
2022-12-14T16:24:22.879Z,37.10
2022-12-14T16:26:49.366Z,37.10
2022-12-14T16:29:15.868Z,37.10
2022-12-14T16:31:42.401Z,37.10
2022-12-14T16:34:09.004Z,37.00
2022-12-14T16:36:35.527Z,37.10
2022-12-14T16:39:02.046Z,37.10
2022-12-14T16:41:28.533Z,37.10
2022-12-14T16:43:55.032Z,37.10
2022-12-14T16:46:21.624Z,37.10
2022-12-14T16:48:50.369Z,37.00
2022-12-14T16:51:18.653Z,37.00
2022-12-14T16:53:51.323Z,37.00
2022-12-14T16:56:17.837Z,37.00
2022-12-14T16:58:44.331Z,37.00
2022-12-14T17:01:10.974Z,37.00
2022-12-14T17:03:38.080Z,37.00
2022-12-14T17:06:05.140Z,37.00
2022-12-14T17:08:31.661Z,37.00
2022-12-14T17:10:58.195Z,37.00
2022-12-14T17:13:24.679Z,37.00
2022-12-14T17:15:51.208Z,37.00
2022-12-14T17:18:17.704Z,37.00
2022-12-14T17:20:44.216Z,37.00
2022-12-14T17:23:10.700Z,36.90
2022-12-14T17:25:37.224Z,36.90
2022-12-14T17:28:03.735Z,36.90
2022-12-14T17:30:30.324Z,37.00
2022-12-14T17:32:56.848Z,37.00
2022-12-14T17:35:23.333Z,36.90
2022-12-14T17:37:49.838Z,37.00
2022-12-14T17:40:16.397Z,36.90
2022-12-14T17:42:42.886Z,36.90
2022-12-14T17:45:09.385Z,36.90
2022-12-14T17:47:35.881Z,36.80
2022-12-14T17:50:02.377Z,36.80
2022-12-14T17:52:28.886Z,36.80
2022-12-14T17:54:55.383Z,36.80
2022-12-14T17:57:21.881Z,36.80
2022-12-14T17:59:48.449Z,36.80
2022-12-14T18:02:15.030Z,36.80
2022-12-14T18:04:41.863Z,36.80
2022-12-14T18:07:08.397Z,36.80
2022-12-14T18:09:34.894Z,36.80
2022-12-14T18:12:22.527Z,36.80
2022-12-14T18:14:47.846Z,36.80
2022-12-14T18:17:14.396Z,36.80
2022-12-14T18:19:40.895Z,36.70
2022-12-14T18:22:07.401Z,36.70
2022-12-14T18:24:34.067Z,36.70
2022-12-14T18:27:00.608Z,36.70
2022-12-14T18:29:27.154Z,36.70
2022-12-14T18:31:53.766Z,36.70
2022-12-14T18:34:20.295Z,36.70
2022-12-14T18:36:46.817Z,36.70
2022-12-14T18:39:13.312Z,36.70
2022-12-14T18:41:39.841Z,36.60
2022-12-14T18:44:06.352Z,36.60
2022-12-14T18:46:33.479Z,36.60
2022-12-14T18:49:00.000Z,36.60
2022-12-14T18:51:26.501Z,36.60
2022-12-14T18:53:52.993Z,36.60
2022-12-14T18:56:19.515Z,36.60
2022-12-14T18:58:46.013Z,36.60
2022-12-14T19:01:12.635Z,36.60
2022-12-14T19:03:39.216Z,36.60
2022-12-14T19:06:41.709Z,36.60
2022-12-14T19:08:52.236Z,36.60
2022-12-14T19:11:18.707Z,36.60
2022-12-14T19:13:45.189Z,36.60
2022-12-14T19:16:11.745Z,36.60
2022-12-14T19:18:38.274Z,36.60
2022-12-14T19:21:04.774Z,36.50
2022-12-14T19:23:31.687Z,36.60
2022-12-14T19:25:58.494Z,36.50
2022-12-14T19:28:33.370Z,36.50
2022-12-14T19:31:00.201Z,36.50
2022-12-14T19:33:27.105Z,36.30
2022-12-14T19:35:53.814Z,36.30
2022-12-14T19:38:20.327Z,36.50
2022-12-14T19:40:46.818Z,36.50
2022-12-14T19:43:13.333Z,36.50
2022-12-14T19:45:39.822Z,36.50
2022-12-14T19:48:11.317Z,36.40
2022-12-14T19:50:39.540Z,36.40
2022-12-14T19:53:06.052Z,36.40
2022-12-14T19:55:32.541Z,36.40
2022-12-14T19:57:59.046Z,36.40
2022-12-14T20:00:25.526Z,36.40
2022-12-14T20:02:52.176Z,36.40
2022-12-14T20:05:18.795Z,36.30
2022-12-14T20:07:45.297Z,36.40
2022-12-14T20:10:11.777Z,36.40
2022-12-14T20:12:38.290Z,36.30
2022-12-14T20:15:04.789Z,36.30
2022-12-14T20:17:31.311Z,36.30
2022-12-14T20:19:57.797Z,36.30
2022-12-14T20:22:24.316Z,36.30
2022-12-14T20:24:50.804Z,36.30
2022-12-14T20:27:17.305Z,36.30
2022-12-14T20:29:43.803Z,36.20
2022-12-14T20:32:10.296Z,36.20
2022-12-14T20:34:36.804Z,36.20
2022-12-14T20:37:03.300Z,36.30
2022-12-14T20:39:29.795Z,36.20
2022-12-14T20:41:56.273Z,36.20
2022-12-14T20:44:22.773Z,36.20
2022-12-14T20:46:49.347Z,36.20
2022-12-14T20:49:15.912Z,36.20
2022-12-14T20:51:42.401Z,36.10
2022-12-14T20:54:08.913Z,36.20
2022-12-14T20:56:35.416Z,36.20
2022-12-14T20:59:01.946Z,36.20
2022-12-14T21:01:28.574Z,36.20
2022-12-14T21:03:55.294Z,36.20
2022-12-14T21:06:21.824Z,36.20
2022-12-14T21:08:48.346Z,36.20
2022-12-14T21:11:15.852Z,36.10
2022-12-14T21:13:42.392Z,36.10
2022-12-14T21:16:08.909Z,36.10
2022-12-14T21:18:35.449Z,36.10
2022-12-14T21:21:02.008Z,36.10
2022-12-14T21:23:28.896Z,36.10
2022-12-14T21:25:55.625Z,36.10
2022-12-14T21:28:22.905Z,36.10
2022-12-14T21:30:50.817Z,36.10
2022-12-14T21:33:17.316Z,36.10
2022-12-14T21:35:43.813Z,36.10
2022-12-14T21:38:10.294Z,36.10
2022-12-14T21:40:36.794Z,36.10
2022-12-14T21:43:03.297Z,36.10
2022-12-14T21:45:29.825Z,36.00
2022-12-14T21:47:56.399Z,36.10
2022-12-14T21:50:22.898Z,36.20
2022-12-14T21:52:49.395Z,36.20
2022-12-14T21:55:15.897Z,36.20
2022-12-14T21:57:42.404Z,36.20
2022-12-14T22:00:08.885Z,36.20
2022-12-14T22:02:35.516Z,36.20
2022-12-14T22:05:02.112Z,36.10
2022-12-14T22:07:28.608Z,36.10
2022-12-14T22:09:55.107Z,36.10
2022-12-14T22:12:21.613Z,36.10
2022-12-14T22:14:48.095Z,36.10
2022-12-14T22:17:14.603Z,36.10
2022-12-14T22:19:41.119Z,36.00
2022-12-14T22:22:07.812Z,36.00
2022-12-14T22:24:34.331Z,36.10
2022-12-14T22:27:00.832Z,36.10
2022-12-14T22:29:27.329Z,36.10
2022-12-14T22:31:53.885Z,36.10
2022-12-14T22:34:20.419Z,36.00
2022-12-14T22:36:46.919Z,36.10
2022-12-14T22:39:13.420Z,36.10
2022-12-14T22:41:39.928Z,36.10
2022-12-14T22:44:06.413Z,36.10
2022-12-14T22:46:32.952Z,36.10
2022-12-14T22:48:59.533Z,36.00
2022-12-14T22:51:26.038Z,36.10
2022-12-14T22:53:52.550Z,36.10
2022-12-14T22:56:20.237Z,36.00
2022-12-14T22:58:49.520Z,36.20
2022-12-14T23:01:16.191Z,36.20
2022-12-14T23:03:42.995Z,36.20
2022-12-14T23:06:09.584Z,36.20
2022-12-14T23:08:36.077Z,36.20
2022-12-14T23:11:02.561Z,36.20
2022-12-14T23:13:31.862Z,36.20
2022-12-14T23:16:01.559Z,36.20
2022-12-14T23:18:28.047Z,36.20
2022-12-14T23:20:54.556Z,36.20
2022-12-14T23:23:21.057Z,36.20
2022-12-14T23:25:47.550Z,36.20
2022-12-14T23:28:14.036Z,36.20
2022-12-14T23:30:40.564Z,36.20
2022-12-14T23:33:07.103Z,36.20
2022-12-14T23:35:33.585Z,36.30
2022-12-14T23:38:00.089Z,36.20
2022-12-14T23:40:26.588Z,36.20
2022-12-14T23:42:53.094Z,36.20
2022-12-14T23:45:19.597Z,36.20
2022-12-14T23:47:46.185Z,36.20
2022-12-14T23:50:15.902Z,36.30
2022-12-14T23:52:42.399Z,36.30
2022-12-14T23:55:08.881Z,36.30
2022-12-14T23:57:35.374Z,36.30
